createdAt,value
2023-04-07T00:05:00.454Z,21.35
2023-04-07T00:10:06.213Z,19.44
2023-04-07T00:15:10.897Z,21.93
2023-04-07T00:20:16.277Z,20.23
2023-04-07T00:25:21.664Z,22.40
2023-04-07T00:30:27.172Z,24.34
2023-04-07T00:35:33.561Z,22.22
2023-04-07T00:40:39.130Z,21.34
2023-04-07T00:45:45.877Z,19.76
2023-04-07T00:50:51.357Z,23.62
2023-04-07T00:55:56.713Z,21.11
2023-04-07T01:01:12.103Z,21.26
2023-04-07T01:06:22.672Z,23.58
2023-04-07T01:11:57.320Z,26.18
2023-04-07T01:17:05.720Z,21.14
2023-04-07T01:22:18.589Z,23.20
2023-04-07T01:27:45.078Z,23.58
2023-04-07T01:32:55.030Z,19.55
2023-04-07T01:38:02.820Z,19.04
2023-04-07T01:43:11.052Z,19.87
2023-04-07T01:48:18.192Z,20.46
2023-04-07T01:53:24.966Z,18.64
2023-04-07T01:58:30.272Z,20.85
2023-04-07T02:03:46.284Z,19.03
2023-04-07T02:08:56.083Z,18.19
2023-04-07T02:14:04.468Z,22.25
2023-04-07T02:19:14.532Z,18.32
2023-04-07T02:24:25.826Z,21.64
2023-04-07T02:29:31.171Z,18.20
2023-04-07T02:34:36.773Z,19.99
2023-04-07T02:39:43.678Z,21.65
2023-04-07T02:44:49.160Z,17.75
2023-04-07T02:49:54.393Z,18.66
2023-04-07T02:54:59.633Z,20.77
2023-04-07T03:00:06.784Z,18.33
2023-04-07T03:05:28.606Z,16.17
2023-04-07T03:10:34.030Z,15.75
2023-04-07T03:15:39.525Z,18.05
2023-04-07T03:20:45.949Z,18.16
2023-04-07T03:25:51.728Z,15.91
2023-04-07T03:30:57.777Z,17.53
2023-04-07T03:36:03.220Z,14.51
2023-04-07T03:41:09.333Z,13.96
2023-04-07T03:46:14.897Z,13.61
2023-04-07T03:51:22.585Z,15.51
2023-04-07T03:56:33.218Z,14.21
2023-04-07T04:01:38.945Z,14.00
2023-04-07T04:06:53.929Z,14.39
2023-04-07T04:12:12.833Z,14.64
2023-04-07T04:17:28.269Z,13.92
2023-04-07T04:22:33.897Z,13.77
2023-04-07T04:27:39.737Z,14.01
2023-04-07T04:32:53.739Z,14.06
2023-04-07T04:38:14.490Z,14.53
2023-04-07T04:43:25.192Z,14.14
2023-04-07T04:48:32.747Z,13.91
2023-04-07T04:53:38.305Z,13.83
2023-04-07T04:58:47.595Z,14.56
2023-04-07T05:04:03.899Z,13.16
2023-04-07T05:09:09.690Z,13.50
2023-04-07T05:14:21.783Z,13.52
2023-04-07T05:19:33.879Z,13.23
2023-04-07T05:24:46.996Z,13.19
2023-04-07T05:29:52.995Z,13.52
2023-04-07T05:35:04.163Z,13.68
2023-04-07T05:40:14.334Z,13.97
2023-04-07T05:45:19.998Z,14.27
2023-04-07T05:50:28.520Z,13.48
2023-04-07T05:55:36.363Z,14.39
2023-04-07T06:00:44.185Z,14.28
2023-04-07T06:05:53.759Z,14.28
2023-04-07T06:10:59.977Z,14.38
2023-04-07T06:16:05.051Z,16.05
2023-04-07T06:21:10.497Z,13.69
2023-04-07T06:26:16.026Z,13.80
2023-04-07T06:31:22.369Z,14.29
2023-04-07T06:36:30.426Z,13.51
2023-04-07T06:41:35.580Z,13.71
2023-04-07T06:46:40.970Z,13.72
2023-04-07T06:51:45.740Z,14.28
2023-04-07T06:56:53.560Z,14.15
2023-04-07T07:01:59.651Z,14.47
2023-04-07T07:07:04.593Z,14.57
2023-04-07T07:12:09.569Z,14.17
2023-04-07T07:17:14.424Z,14.67
2023-04-07T07:22:19.734Z,14.64
2023-04-07T07:27:24.754Z,13.93
2023-04-07T07:32:29.635Z,13.79
2023-04-07T07:37:34.965Z,13.20
2023-04-07T07:42:41.164Z,14.78
2023-04-07T07:47:46.005Z,13.80
2023-04-07T07:52:50.810Z,14.07
2023-04-07T07:57:55.647Z,13.21
2023-04-07T08:03:01.456Z,13.50
2023-04-07T08:08:06.185Z,13.61
2023-04-07T08:13:11.068Z,12.68
2023-04-07T08:18:18.735Z,13.69
2023-04-07T08:23:23.604Z,13.51
2023-04-07T08:28:28.834Z,13.66
2023-04-07T08:33:33.526Z,14.02
2023-04-07T08:38:37.878Z,13.60
2023-04-07T08:43:44.815Z,13.97
2023-04-07T08:48:53.608Z,13.99
2023-04-07T08:54:12.074Z,13.44
2023-04-07T08:59:28.183Z,14.33
2023-04-07T09:04:33.576Z,14.16
2023-04-07T09:09:38.521Z,14.39
2023-04-07T09:14:43.525Z,14.47
2023-04-07T09:19:49.500Z,15.05
2023-04-07T09:24:54.174Z,14.28
2023-04-07T09:30:19.185Z,14.78
2023-04-07T09:35:25.117Z,14.58
2023-04-07T09:40:30.145Z,14.71
2023-04-07T09:45:40.540Z,15.30
2023-04-07T09:50:50.502Z,15.60
2023-04-07T09:55:55.488Z,15.91
2023-04-07T10:01:00.417Z,15.51
2023-04-07T10:06:08.372Z,15.53
2023-04-07T10:11:13.153Z,15.50
2023-04-07T10:16:18.276Z,14.58
2023-04-07T10:21:24.543Z,14.87
2023-04-07T10:26:34.395Z,15.10
2023-04-07T10:31:40.693Z,15.92
2023-04-07T10:37:19.685Z,16.21
2023-04-07T10:42:43.530Z,16.19
2023-04-07T10:48:00.471Z,16.09
2023-04-07T10:53:18.757Z,16.16
2023-04-07T10:58:27.502Z,16.19
2023-04-07T11:03:37.688Z,17.84
2023-04-07T11:08:49.359Z,16.00
2023-04-07T11:13:54.303Z,16.85
2023-04-07T11:18:59.632Z,16.60
2023-04-07T11:24:04.667Z,16.46
2023-04-07T11:29:13.472Z,16.78
2023-04-07T11:34:18.443Z,16.79
2023-04-07T11:39:24.650Z,17.46
2023-04-07T11:44:29.822Z,17.56
2023-04-07T11:49:34.740Z,17.14
2023-04-07T11:54:49.651Z,17.52
2023-04-07T12:00:12.620Z,17.56
2023-04-07T12:05:20.780Z,17.88
2023-04-07T12:10:30.753Z,17.94
2023-04-07T12:15:38.802Z,18.29
2023-04-07T12:20:43.657Z,18.75
2023-04-07T12:25:48.990Z,18.59
2023-04-07T12:30:54.026Z,18.57
2023-04-07T12:36:03.962Z,19.44
2023-04-07T12:41:08.803Z,19.44
2023-04-07T12:46:15.274Z,19.42
2023-04-07T12:51:20.142Z,20.06
2023-04-07T12:56:25.364Z,20.89
2023-04-07T13:01:32.225Z,19.96
2023-04-07T13:06:37.257Z,20.87
2023-04-07T13:11:43.380Z,21.26
2023-04-07T13:16:50.163Z,21.61
2023-04-07T13:21:55.343Z,21.42
2023-04-07T13:27:01.727Z,21.86
2023-04-07T13:32:10.891Z,22.34
2023-04-07T13:37:15.900Z,21.80
2023-04-07T13:42:23.164Z,22.33
2023-04-07T13:47:29.112Z,21.92
2023-04-07T13:52:36.519Z,22.12
2023-04-07T13:57:41.534Z,22.56
2023-04-07T14:02:47.236Z,23.38
2023-04-07T14:07:53.362Z,22.94
2023-04-07T14:13:00.069Z,23.09
2023-04-07T14:18:05.774Z,23.14
2023-04-07T14:23:15.066Z,23.38
2023-04-07T14:28:22.824Z,23.75
2023-04-07T14:33:30.754Z,23.47
2023-04-07T14:38:35.858Z,24.00
2023-04-07T14:43:41.319Z,24.47
2023-04-07T14:48:49.528Z,24.12
2023-04-07T14:53:57.194Z,24.22
2023-04-07T14:59:03.654Z,24.53
2023-04-07T15:04:08.707Z,24.58
2023-04-07T15:09:15.869Z,24.75
2023-04-07T15:14:20.785Z,25.03
2023-04-07T15:19:25.829Z,25.19
2023-04-07T15:24:30.857Z,25.10
2023-04-07T15:29:35.921Z,26.68
2023-04-07T15:34:41.129Z,26.86
2023-04-07T15:39:46.079Z,27.29
2023-04-07T15:44:50.888Z,27.59
2023-04-07T15:49:57.106Z,28.01
2023-04-07T15:55:01.984Z,27.74
2023-04-07T16:00:06.849Z,28.88
2023-04-07T16:05:12.930Z,29.97
2023-04-07T16:10:20.954Z,29.86
2023-04-07T16:15:38.592Z,29.23
2023-04-07T16:20:46.309Z,28.95
2023-04-07T16:25:51.138Z,27.82
2023-04-07T16:30:57.786Z,27.10
2023-04-07T16:36:02.695Z,27.93
2023-04-07T16:41:09.635Z,29.82
2023-04-07T16:46:14.500Z,28.26
2023-04-07T16:51:20.005Z,27.48
2023-04-07T16:56:27.607Z,28.54
2023-04-07T17:01:32.391Z,28.75
2023-04-07T17:06:37.198Z,28.11
2023-04-07T17:11:43.713Z,28.16
2023-04-07T17:16:48.340Z,27.95
2023-04-07T17:21:54.100Z,27.98
2023-04-07T17:26:59.013Z,27.46
2023-04-07T17:32:03.997Z,27.58
2023-04-07T17:37:08.702Z,27.47
2023-04-07T17:42:13.469Z,28.16
2023-04-07T17:47:18.930Z,28.27
2023-04-07T17:52:24.008Z,27.71
2023-04-07T17:57:28.886Z,28.65
2023-04-07T18:02:34.514Z,28.62
2023-04-07T18:07:40.198Z,27.69
2023-04-07T18:12:44.852Z,27.63
2023-04-07T18:17:54.001Z,28.47
2023-04-07T18:22:59.193Z,28.39
2023-04-07T18:28:04.070Z,28.48
2023-04-07T18:33:09.619Z,28.59
2023-04-07T18:38:15.125Z,30.12
2023-04-07T18:43:19.317Z,30.71
2023-04-07T18:48:24.183Z,28.67
2023-04-07T18:53:28.830Z,28.60
2023-04-07T18:58:33.770Z,27.97
2023-04-07T19:03:39.271Z,27.85
2023-04-07T19:08:44.309Z,27.61
2023-04-07T19:13:50.576Z,27.85
2023-04-07T19:18:55.969Z,27.97
2023-04-07T19:24:01.952Z,28.52
2023-04-07T19:29:07.015Z,28.65
2023-04-07T19:34:11.658Z,30.74
2023-04-07T19:39:17.329Z,28.95
2023-04-07T19:44:22.417Z,29.69
2023-04-07T19:49:27.899Z,29.45
2023-04-07T19:54:34.474Z,29.61
2023-04-07T19:59:40.653Z,30.32
2023-04-07T20:04:45.263Z,29.87
2023-04-07T20:09:52.637Z,29.11
2023-04-07T20:14:57.641Z,28.80
2023-04-07T20:20:02.739Z,29.42
2023-04-07T20:25:09.940Z,29.94
2023-04-07T20:30:15.674Z,28.58
2023-04-07T20:35:19.912Z,28.82
2023-04-07T20:40:25.576Z,28.57
2023-04-07T20:45:30.511Z,28.42
2023-04-07T20:50:35.425Z,28.74
2023-04-07T20:55:40.368Z,28.64
2023-04-07T21:00:45.163Z,28.87
2023-04-07T21:05:51.847Z,28.67
2023-04-07T21:10:57.090Z,29.45
2023-04-07T21:16:04.442Z,28.87
2023-04-07T21:21:09.451Z,28.29
2023-04-07T21:26:15.117Z,28.16
2023-04-07T21:31:26.464Z,27.91
2023-04-07T21:36:30.604Z,28.40
2023-04-07T21:41:36.572Z,28.64
2023-04-07T21:46:43.467Z,29.28
2023-04-07T21:51:48.429Z,29.10
2023-04-07T21:56:55.166Z,28.76
2023-04-07T22:02:00.879Z,28.20
2023-04-07T22:07:05.925Z,30.60
2023-04-07T22:12:10.682Z,31.06
2023-04-07T22:17:17.285Z,31.41
2023-04-07T22:22:22.598Z,31.28
2023-04-07T22:27:28.974Z,30.82
2023-04-07T22:32:33.879Z,33.21
2023-04-07T22:37:39.763Z,31.48
2023-04-07T22:42:44.873Z,30.84
2023-04-07T22:47:49.719Z,31.21
2023-04-07T22:52:54.120Z,30.03
2023-04-07T22:57:58.828Z,29.52
2023-04-07T23:03:03.900Z,28.72
2023-04-07T23:08:08.778Z,29.34
2023-04-07T23:13:16.295Z,28.67
2023-04-07T23:18:21.173Z,28.82
2023-04-07T23:23:25.989Z,28.37
2023-04-07T23:28:31.897Z,28.48
2023-04-07T23:33:36.732Z,28.46
2023-04-07T23:38:42.086Z,29.32
2023-04-07T23:43:46.982Z,29.81
2023-04-07T23:48:52.182Z,29.81
2023-04-07T23:53:58.227Z,29.10
2023-04-07T23:59:03.131Z,28.88
